^^
Your Local Weather - Clay, NY Station Historical Data
Daily Summary for December 15, 2017 Units:  English    Metric   Both
« Previous Day
Next Day »
Daily Weekly Monthly Yearly Custom
  High: Low: Average:
Temperature: 26.2 °F 6.6 °F 19.2 °F
Dew Point: 18.7 °F 3.1 °F 11.9 °F
Humidity: 87% 59% 73%
Wind Speed: 5.0mph 0.0mph 1.5mph
Wind Gust: 9.0mph - -
Wind- - SSW
Pressure: 30.03 in 29.77 in -
Precipitation: 0.00 in    
Historical Graphs
 
 
Tabular Data for December 15, 2017
Time Temperature Dew Point Pressure Wind Wind Speed Wind Gust Humidity Rainfall Rate (Hourly) solar
00:02 19.0 °F 12.7 °F 30.02 in WSW 3.0 mph 3.0 mph 76% 0.00 in 0 W/m2
00:08 19.1 °F 12.5 °F 30.01 in West 3.0 mph 4.0 mph 75% 0.00 in 0 W/m2
00:14 19.1 °F 12.5 °F 30.01 in WSW 3.0 mph 4.0 mph 75% 0.00 in 0 W/m2
00:20 19.0 °F 12.4 °F 30.01 in SW 3.0 mph 3.0 mph 75% 0.00 in 0 W/m2
00:26 19.0 °F 12.4 °F 30.01 in SSW 3.0 mph 4.0 mph 75% 0.00 in 0 W/m2
00:32 18.9 °F 12.3 °F 30.01 in West 3.0 mph 3.0 mph 75% 0.00 in 0 W/m2
00:38 18.9 °F 12.3 °F 30.01 in SW 2.0 mph 9.0 mph 75% 0.00 in 0 W/m2
00:44 19.0 °F 12.4 °F 30.01 in West 3.0 mph 5.0 mph 75% 0.00 in 0 W/m2
00:50 18.9 °F 12.3 °F 30.01 in West 3.0 mph 5.0 mph 75% 0.00 in 0 W/m2
00:56 18.9 °F 12.3 °F 30.01 in SW 3.0 mph 5.0 mph 75% 0.00 in 0 W/m2
01:02 18.8 °F 12.2 °F 30.01 in WSW 3.0 mph 3.0 mph 75% 0.00 in 0 W/m2
01:12 18.7 °F 12.4 °F 30.01 in SW 3.0 mph 3.0 mph 76% 0.00 in 0 W/m2
01:18 18.6 °F 12.0 °F 30.02 in WSW 3.0 mph 4.0 mph 75% 0.00 in 0 W/m2
01:24 18.7 °F 12.1 °F 30.02 in SSW 3.0 mph 8.0 mph 75% 0.00 in 0 W/m2
01:30 18.7 °F 12.1 °F 30.02 in WSW 3.0 mph 3.0 mph 75% 0.00 in 0 W/m2
01:36 18.8 °F 12.2 °F 30.02 in WSW 3.0 mph 5.0 mph 75% 0.00 in 0 W/m2
01:42 18.9 °F 12.3 °F 30.02 in SW 3.0 mph 5.0 mph 75% 0.00 in 0 W/m2
01:48 19.0 °F 12.4 °F 30.02 in WSW 4.0 mph 5.0 mph 75% 0.00 in 0 W/m2
01:54 19.0 °F 12.4 °F 30.02 in SW 4.0 mph 4.0 mph 75% 0.00 in 0 W/m2
02:02 18.9 °F 12.3 °F 30.02 in SW 3.0 mph 3.0 mph 75% 0.00 in 0 W/m2
02:08 18.8 °F 11.9 °F 30.02 in WSW 3.0 mph 4.0 mph 74% 0.00 in 0 W/m2
02:16 18.8 °F 11.9 °F 30.03 in WSW 3.0 mph 3.0 mph 74% 0.00 in 0 W/m2
02:22 18.7 °F 12.1 °F 30.02 in WSW 3.0 mph 3.0 mph 75% 0.00 in 0 W/m2
02:28 18.6 °F 11.7 °F 30.02 in SW 2.0 mph 3.0 mph 74% 0.00 in 0 W/m2
02:40 18.3 °F 11.4 °F 30.02 in SW 2.0 mph 2.0 mph 74% 0.00 in 0 W/m2
02:42 18.3 °F 11.7 °F 30.02 in SW 2.0 mph 2.0 mph 75% 0.00 in 0 W/m2
02:48 18.2 °F 11.6 °F 30.02 in SW 1.0 mph 3.0 mph 75% 0.00 in 0 W/m2
02:54 18.1 °F 11.5 °F 30.02 in SW 1.0 mph 1.0 mph 75% 0.00 in 0 W/m2
03:00 18.0 °F 11.4 °F 30.02 in Calm     75% 0.00 in 0 W/m2
03:06 17.6 °F 11.0 °F 30.02 in Calm     75% 0.00 in 0 W/m2
03:12 17.3 °F 10.7 °F 30.02 in Calm     75% 0.00 in 0 W/m2
03:18 17.0 °F 10.7 °F 30.02 in Calm     76% 0.00 in 0 W/m2
03:24 16.8 °F 10.5 °F 30.02 in Calm     76% 0.00 in 0 W/m2
03:30 16.6 °F 10.6 °F 30.01 in Calm     77% 0.00 in 0 W/m2
03:36 16.5 °F 10.5 °F 30.01 in Calm     77% 0.00 in 0 W/m2
03:42 16.6 °F 10.6 °F 30.01 in Calm     77% 0.00 in 0 W/m2
03:48 16.6 °F 10.6 °F 30.01 in SW 1.0 mph 2.0 mph 77% 0.00 in 0 W/m2
03:54 16.5 °F 10.5 °F 30.01 in Calm     77% 0.00 in 0 W/m2
04:00 16.4 °F 10.4 °F 30.00 in Calm     77% 0.00 in 0 W/m2
04:08 16.1 °F 10.2 °F 30.00 in Calm     77% 0.00 in 0 W/m2
04:14 15.6 °F 9.7 °F 30.00 in Calm     77% 0.00 in 0 W/m2
04:22 13.9 °F 8.3 °F 30.01 in Calm     78% 0.00 in 0 W/m2
04:28 13.2 °F 7.9 °F 30.00 in Calm     79% 0.00 in 0 W/m2
04:34 12.8 °F 7.8 °F 30.00 in Calm     80% 0.00 in 0 W/m2
04:46 11.9 °F 7.2 °F 30.00 in Calm     81% 0.00 in 0 W/m2
04:52 11.3 °F 6.9 °F 30.00 in Calm     82% 0.00 in 0 W/m2
04:58 10.6 °F 6.2 °F 30.00 in Calm     82% 0.00 in 0 W/m2
05:04 10.2 °F 6.1 °F 29.99 in Calm     83% 0.00 in 0 W/m2
05:10 9.6 °F 5.5 °F 29.99 in Calm     83% 0.00 in 0 W/m2
05:16 9.2 °F 5.1 °F 29.99 in Calm     83% 0.00 in 0 W/m2
05:22 8.8 °F 5.0 °F 29.99 in Calm     84% 0.00 in 0 W/m2
05:28 8.6 °F 4.8 °F 29.99 in Calm     84% 0.00 in 0 W/m2
05:34 8.4 °F 4.6 °F 29.99 in Calm     84% 0.00 in 0 W/m2
05:40 8.0 °F 4.2 °F 29.99 in Calm     84% 0.00 in 0 W/m2
05:52 7.4 °F 3.8 °F 29.99 in Calm     85% 0.00 in 0 W/m2
05:58 7.0 °F 3.4 °F 29.99 in Calm     85% 0.00 in 0 W/m2
06:04 6.7 °F 3.1 °F 29.99 in Calm     85% 0.00 in 0 W/m2
06:10 6.7 °F 3.1 °F 29.99 in Calm     85% 0.00 in 0 W/m2
06:18 6.8 °F 3.5 °F 29.99 in Calm     86% 0.00 in 0 W/m2
06:24 6.9 °F 3.6 °F 29.99 in Calm     86% 0.00 in 0 W/m2
06:32 7.1 °F 3.8 °F 29.99 in Calm     86% 0.00 in 0 W/m2
06:38 7.1 °F 3.8 °F 29.99 in Calm     86% 0.00 in 0 W/m2
06:44 7.1 °F 3.8 °F 29.99 in Calm     86% 0.00 in 0 W/m2
06:50 7.0 °F 3.7 °F 29.99 in Calm     86% 0.00 in 0 W/m2
06:56 6.8 °F 3.5 °F 30.00 in Calm     86% 0.00 in 0 W/m2
07:02 6.7 °F 3.4 °F 30.00 in Calm     86% 0.00 in 0 W/m2
07:08 6.6 °F 3.3 °F 30.00 in Calm     86% 0.00 in 0 W/m2
07:16 7.0 °F 3.9 °F 30.00 in Calm     87% 0.00 in 0 W/m2
07:22 7.0 °F 3.9 °F 30.00 in Calm     87% 0.00 in 0 W/m2
07:28 7.4 °F 4.3 °F 30.00 in Calm     87% 0.00 in 0 W/m2
07:34 7.4 °F 4.3 °F 30.00 in Calm     87% 0.00 in 0 W/m2
07:40 7.6 °F 4.5 °F 30.00 in Calm     87% 0.00 in 0 W/m2
07:46 7.3 °F 4.2 °F 30.00 in Calm     87% 0.00 in 0 W/m2
07:52 7.1 °F 3.8 °F 29.99 in Calm     86% 0.00 in 5 W/m2
07:58 7.0 °F 3.7 °F 29.99 in Calm   1.0 mph 86% 0.00 in 7 W/m2
08:04 7.1 °F 4.0 °F 30.00 in Calm   1.0 mph 87% 0.00 in 9 W/m2
08:10 7.2 °F 4.1 °F 30.00 in Calm     87% 0.00 in 11 W/m2
08:16 7.4 °F 4.3 °F 30.00 in Calm     87% 0.00 in 14 W/m2
08:22 7.4 °F 4.3 °F 30.00 in Calm     87% 0.00 in 21 W/m2
08:28 7.9 °F 4.8 °F 30.00 in Calm   2.0 mph 87% 0.00 in 30 W/m2
08:36 10.0 °F 6.9 °F 30.00 in SSE 1.0 mph 2.0 mph 87% 0.00 in 25 W/m2
08:48 12.3 °F 8.9 °F 30.00 in SSE 1.0 mph 3.0 mph 86% 0.00 in 35 W/m2
08:54 13.1 °F 9.2 °F 30.00 in SSE 2.0 mph 2.0 mph 84% 0.00 in 42 W/m2
09:00 13.8 °F 9.0 °F 30.00 in SSE 1.0 mph 4.0 mph 81% 0.00 in 47 W/m2
09:06 14.5 °F 9.2 °F 30.00 in SSE 2.0 mph 4.0 mph 79% 0.00 in 51 W/m2
09:12 15.3 °F 9.4 °F 30.00 in SSE 2.0 mph 2.0 mph 77% 0.00 in 53 W/m2
09:18 15.7 °F 9.5 °F 30.00 in SSE 2.0 mph 5.0 mph 76% 0.00 in 56 W/m2
09:24 16.1 °F 9.6 °F 30.00 in SSE 3.0 mph 3.0 mph 75% 0.00 in 58 W/m2
09:30 17.0 °F 10.1 °F 30.00 in SSE 2.0 mph 2.0 mph 74% 0.00 in 60 W/m2
09:36 17.2 °F 10.0 °F 30.00 in SE 2.0 mph 4.0 mph 73% 0.00 in 62 W/m2
09:42 17.8 °F 10.3 °F 30.00 in SE 2.0 mph 2.0 mph 72% 0.00 in 65 W/m2
09:48 18.1 °F 10.6 °F 29.99 in SE 1.0 mph 3.0 mph 72% 0.00 in 63 W/m2
09:54 18.3 °F 10.5 °F 29.99 in SE 2.0 mph 4.0 mph 71% 0.00 in 70 W/m2
10:00 19.1 °F 11.2 °F 29.99 in SE 2.0 mph 2.0 mph 71% 0.00 in 77 W/m2
10:06 19.3 °F 11.1 °F 29.99 in SE 2.0 mph 3.0 mph 70% 0.00 in 86 W/m2
10:12 18.8 °F 10.6 °F 29.99 in SSE 3.0 mph 3.0 mph 70% 0.00 in 74 W/m2
10:18 19.4 °F 11.5 °F 29.99 in SSE 2.0 mph 3.0 mph 71% 0.00 in 83 W/m2
10:26 20.0 °F 12.1 °F 29.98 in SSE 1.0 mph 3.0 mph 71% 0.00 in 86 W/m2
10:32 20.4 °F 12.5 °F 29.98 in SSE 1.0 mph 3.0 mph 71% 0.00 in 86 W/m2
10:38 20.8 °F 12.6 °F 29.98 in SSE 2.0 mph 4.0 mph 70% 0.00 in 84 W/m2
10:44 20.9 °F 12.6 °F 29.97 in SSE 2.0 mph 3.0 mph 70% 0.00 in 105 W/m2
10:50 21.4 °F 13.1 °F 29.97 in SSE 2.0 mph 2.0 mph 70% 0.00 in 93 W/m2
10:58 21.7 °F 13.1 °F 29.96 in SSE 2.0 mph 4.0 mph 69% 0.00 in 88 W/m2
11:04 21.9 °F 13.3 °F 29.96 in SSE 2.0 mph 3.0 mph 69% 0.00 in 81 W/m2
11:10 22.2 °F 13.2 °F 29.96 in SSE 2.0 mph 4.0 mph 68% 0.00 in 74 W/m2
11:16 22.6 °F 13.6 °F 29.95 in South 2.0 mph 4.0 mph 68% 0.00 in 77 W/m2
11:22 22.7 °F 13.4 °F 29.95 in SSW 2.0 mph 4.0 mph 67% 0.00 in 79 W/m2
11:28 22.8 °F 13.5 °F 29.94 in SW 3.0 mph 4.0 mph 67% 0.00 in 79 W/m2
11:34 23.0 °F 13.3 °F 29.94 in SW 2.0 mph 3.0 mph 66% 0.00 in 93 W/m2
11:40 23.2 °F 13.2 °F 29.93 in SSE 2.0 mph 3.0 mph 65% 0.00 in 98 W/m2
11:46 23.3 °F 13.3 °F 29.93 in South 2.0 mph 3.0 mph 65% 0.00 in 116 W/m2
11:52 23.6 °F 13.5 °F 29.93 in South 2.0 mph 3.0 mph 65% 0.00 in 111 W/m2
11:58 24.1 °F 13.7 °F 29.93 in SSE 2.0 mph 3.0 mph 64% 0.00 in 142 W/m2
12:04 24.7 °F 13.9 °F 29.92 in SSE 1.0 mph 1.0 mph 63% 0.00 in 118 W/m2
12:10 24.6 °F 13.4 °F 29.92 in Calm   3.0 mph 62% 0.00 in 109 W/m2
12:16 24.7 °F 13.9 °F 29.92 in SSE 1.0 mph 3.0 mph 63% 0.00 in 128 W/m2
12:22 25.1 °F 13.5 °F 29.91 in South 1.0 mph 4.0 mph 61% 0.00 in 102 W/m2
12:28 25.4 °F 14.5 °F 29.91 in SSW 2.0 mph 4.0 mph 63% 0.00 in 102 W/m2
12:34 25.8 °F 14.6 °F 29.91 in SSW 1.0 mph 2.0 mph 62% 0.00 in 141 W/m2
12:40 25.8 °F 14.2 °F 29.90 in SW 2.0 mph 2.0 mph 61% 0.00 in 172 W/m2
12:46 26.2 °F 14.6 °F 29.90 in WSW 3.0 mph 4.0 mph 61% 0.00 in 167 W/m2
12:52 25.8 °F 14.2 °F 29.90 in SSW 2.0 mph 3.0 mph 61% 0.00 in 165 W/m2
12:58 25.9 °F 14.3 °F 29.89 in West 3.0 mph 4.0 mph 61% 0.00 in 125 W/m2
13:04 25.8 °F 14.2 °F 29.89 in SW 3.0 mph 4.0 mph 61% 0.00 in 104 W/m2
13:12 25.8 °F 13.8 °F 29.88 in West 3.0 mph 4.0 mph 60% 0.00 in 142 W/m2
13:18 26.1 °F 13.7 °F 29.88 in SW 3.0 mph 4.0 mph 59% 0.00 in 134 W/m2
13:24 26.1 °F 14.1 °F 29.88 in SW 3.0 mph 3.0 mph 60% 0.00 in 144 W/m2
13:30 26.0 °F 13.6 °F 29.88 in West 3.0 mph 3.0 mph 59% 0.00 in 125 W/m2
13:36 25.6 °F 13.2 °F 29.87 in WSW 4.0 mph 7.0 mph 59% 0.00 in 104 W/m2
13:42 25.4 °F 13.1 °F 29.87 in SSW 4.0 mph 4.0 mph 59% 0.00 in 102 W/m2
13:48 25.5 °F 13.5 °F 29.87 in WSW 3.0 mph 4.0 mph 60% 0.00 in 97 W/m2
13:54 25.5 °F 13.5 °F 29.87 in SSW 2.0 mph 6.0 mph 60% 0.00 in 79 W/m2
14:00 25.4 °F 13.4 °F 29.86 in SSW 2.0 mph 2.0 mph 60% 0.00 in 81 W/m2
14:06 25.3 °F 13.3 °F 29.86 in WSW 3.0 mph 5.0 mph 60% 0.00 in 100 W/m2
14:12 25.3 °F 13.3 °F 29.86 in SW 3.0 mph 3.0 mph 60% 0.00 in 91 W/m2
14:18 25.2 °F 13.2 °F 29.85 in South 3.0 mph 4.0 mph 60% 0.00 in 81 W/m2
14:24 25.3 °F 13.7 °F 29.85 in West 2.0 mph 3.0 mph 61% 0.00 in 77 W/m2
14:30 25.2 °F 13.6 °F 29.85 in SSW 1.0 mph 1.0 mph 61% 0.00 in 74 W/m2
14:36 25.2 °F 13.6 °F 29.85 in SW 2.0 mph 5.0 mph 61% 0.00 in 81 W/m2
14:42 25.2 °F 13.6 °F 29.84 in SW 2.0 mph 2.0 mph 61% 0.00 in 81 W/m2
14:48 25.1 °F 13.2 °F 29.84 in South 2.0 mph 5.0 mph 60% 0.00 in 62 W/m2
14:54 25.0 °F 13.1 °F 29.84 in South 3.0 mph 4.0 mph 60% 0.00 in 51 W/m2
15:00 24.9 °F 13.3 °F 29.84 in SSW 2.0 mph 2.0 mph 61% 0.00 in 51 W/m2
15:08 25.0 °F 13.4 °F 29.83 in SSW 2.0 mph 3.0 mph 61% 0.00 in 51 W/m2
15:14 25.0 °F 13.8 °F 29.83 in SSW 1.0 mph 3.0 mph 62% 0.00 in 54 W/m2
15:20 25.0 °F 13.8 °F 29.83 in SSW 2.0 mph 5.0 mph 62% 0.00 in 49 W/m2
15:26 25.0 °F 13.4 °F 29.82 in SSW 2.0 mph 5.0 mph 61% 0.00 in 39 W/m2
15:32 24.9 °F 13.3 °F 29.82 in SSW 1.0 mph 3.0 mph 61% 0.00 in 33 W/m2
15:38 24.8 °F 13.6 °F 29.82 in SSE 1.0 mph 3.0 mph 62% 0.00 in 26 W/m2
15:44 24.8 °F 14.0 °F 29.82 in SSE 1.0 mph 1.0 mph 63% 0.00 in 28 W/m2
15:50 24.8 °F 14.0 °F 29.82 in Calm     63% 0.00 in 23 W/m2
15:56 24.9 °F 14.1 °F 29.82 in Calm   2.0 mph 63% 0.00 in 25 W/m2
16:02 24.8 °F 14.3 °F 29.82 in Calm     64% 0.00 in 21 W/m2
16:08 24.7 °F 14.2 °F 29.82 in Calm     64% 0.00 in 9 W/m2
16:14 24.6 °F 14.5 °F 29.81 in Calm     65% 0.00 in 7 W/m2
16:20 24.5 °F 14.1 °F 29.81 in Calm     64% 0.00 in 5 W/m2
16:26 24.2 °F 14.1 °F 29.81 in Calm   1.0 mph 65% 0.00 in 0 W/m2
16:32 24.0 °F 14.3 °F 29.81 in Calm     66% 0.00 in 0 W/m2
16:38 24.1 °F 14.4 °F 29.81 in SSE 1.0 mph 4.0 mph 66% 0.00 in 0 W/m2
16:44 24.2 °F 14.5 °F 29.81 in SSE 1.0 mph 1.0 mph 66% 0.00 in 0 W/m2
16:50 24.4 °F 14.3 °F 29.81 in SSE 1.0 mph 4.0 mph 65% 0.00 in 0 W/m2
16:56 24.4 °F 14.0 °F 29.81 in South 3.0 mph 5.0 mph 64% 0.00 in 0 W/m2
17:02 24.2 °F 13.8 °F 29.81 in South 4.0 mph 4.0 mph 64% 0.00 in 0 W/m2
17:08 24.0 °F 13.6 °F 29.81 in SSW 4.0 mph 4.0 mph 64% 0.00 in 0 W/m2
17:14 24.0 °F 13.6 °F 29.81 in South 4.0 mph 4.0 mph 64% 0.00 in 0 W/m2
17:20 23.8 °F 13.7 °F 29.81 in South 3.0 mph 3.0 mph 65% 0.00 in 0 W/m2
17:26 23.6 °F 13.5 °F 29.81 in SE 2.0 mph 3.0 mph 65% 0.00 in 0 W/m2
17:32 23.5 °F 13.5 °F 29.81 in South 2.0 mph 2.0 mph 65% 0.00 in 0 W/m2
17:38 23.4 °F 13.4 °F 29.81 in South 2.0 mph 2.0 mph 65% 0.00 in 0 W/m2
17:40 23.4 °F 13.4 °F 29.81 in South 1.0 mph 1.0 mph 65% 0.00 in 0 W/m2
17:46 23.2 °F 13.5 °F 29.81 in South 1.0 mph 2.0 mph 66% 0.00 in 0 W/m2
17:52 23.0 °F 13.3 °F 29.81 in South 1.0 mph 1.0 mph 66% 0.00 in 0 W/m2
17:58 23.0 °F 13.3 °F 29.81 in South 1.0 mph 1.0 mph 66% 0.00 in 0 W/m2
18:04 22.9 °F 13.6 °F 29.81 in South 1.0 mph 2.0 mph 67% 0.00 in 0 W/m2
18:10 22.9 °F 13.6 °F 29.80 in South 1.0 mph 1.0 mph 67% 0.00 in 0 W/m2
18:22 22.6 °F 13.6 °F 29.80 in South 1.0 mph 1.0 mph 68% 0.00 in 0 W/m2
18:28 22.2 °F 13.2 °F 29.80 in Calm   1.0 mph 68% 0.00 in 0 W/m2
18:34 21.8 °F 13.2 °F 29.80 in Calm     69% 0.00 in 0 W/m2
18:40 21.8 °F 13.2 °F 29.80 in Calm     69% 0.00 in 0 W/m2
18:46 21.7 °F 13.1 °F 29.79 in Calm     69% 0.00 in 0 W/m2
18:52 21.2 °F 12.9 °F 29.79 in Calm     70% 0.00 in 0 W/m2
19:00 20.6 °F 12.4 °F 29.79 in Calm     70% 0.00 in 0 W/m2
19:06 20.1 °F 12.2 °F 29.79 in Calm     71% 0.00 in 0 W/m2
19:08 19.9 °F 12.0 °F 29.79 in Calm     71% 0.00 in 0 W/m2
19:14 19.3 °F 11.7 °F 29.79 in Calm     72% 0.00 in 0 W/m2
19:20 18.8 °F 11.6 °F 29.79 in Calm     73% 0.00 in 0 W/m2
19:26 18.4 °F 11.2 °F 29.79 in Calm     73% 0.00 in 0 W/m2
19:32 17.9 °F 11.0 °F 29.79 in Calm     74% 0.00 in 0 W/m2
19:38 17.6 °F 11.0 °F 29.79 in Calm     75% 0.00 in 0 W/m2
19:44 17.3 °F 10.7 °F 29.79 in Calm     75% 0.00 in 0 W/m2
19:50 17.0 °F 10.7 °F 29.79 in Calm     76% 0.00 in 0 W/m2
19:56 16.8 °F 10.8 °F 29.79 in Calm     77% 0.00 in 0 W/m2
20:02 16.4 °F 10.7 °F 29.79 in Calm     78% 0.00 in 0 W/m2
20:08 16.4 °F 11.0 °F 29.79 in Calm     79% 0.00 in 0 W/m2
20:12 16.4 °F 11.0 °F 29.79 in Calm     79% 0.00 in 0 W/m2
20:18 16.5 °F 11.4 °F 29.79 in Calm     80% 0.00 in 0 W/m2
20:24 16.7 °F 11.6 °F 29.78 in Calm     80% 0.00 in 0 W/m2
20:30 16.8 °F 12.0 °F 29.78 in Calm     81% 0.00 in 0 W/m2
20:36 16.8 °F 12.0 °F 29.78 in Calm     81% 0.00 in 0 W/m2
20:42 17.1 °F 12.3 °F 29.78 in Calm     81% 0.00 in 0 W/m2
20:48 18.3 °F 13.7 °F 29.78 in Calm     82% 0.00 in 0 W/m2
20:54 19.4 °F 14.5 °F 29.78 in South 1.0 mph 2.0 mph 81% 0.00 in 0 W/m2
20:58 20.6 °F 15.7 °F 29.78 in SSW 1.0 mph 2.0 mph 81% 0.00 in 0 W/m2
21:04 21.7 °F 16.5 °F 29.78 in WSW 2.0 mph 5.0 mph 80% 0.00 in 0 W/m2
21:10 22.4 °F 16.9 °F 29.78 in SSW 2.0 mph 2.0 mph 79% 0.00 in 0 W/m2
21:16 22.9 °F 17.4 °F 29.78 in SSW 2.0 mph 2.0 mph 79% 0.00 in 0 W/m2
21:22 23.2 °F 17.9 °F 29.78 in SW 2.0 mph 2.0 mph 80% 0.00 in 0 W/m2
21:26 23.3 °F 18.0 °F 29.77 in SSW 2.0 mph 5.0 mph 80% 0.00 in 0 W/m2
21:32 23.3 °F 18.3 °F 29.77 in SSW 3.0 mph 3.0 mph 81% 0.00 in 0 W/m2
21:38 23.3 °F 18.6 °F 29.77 in South 2.0 mph 3.0 mph 82% 0.00 in 0 W/m2
21:50 23.2 °F 18.5 °F 29.77 in SW 2.0 mph 2.0 mph 82% 0.00 in 0 W/m2
21:56 23.1 °F 18.4 °F 29.77 in SW 3.0 mph 7.0 mph 82% 0.00 in 0 W/m2
22:02 23.2 °F 18.2 °F 29.77 in South 3.0 mph 6.0 mph 81% 0.00 in 0 W/m2
22:08 23.1 °F 18.1 °F 29.77 in South 3.0 mph 6.0 mph 81% 0.00 in 0 W/m2
22:18 23.3 °F 18.3 °F 29.77 in South 4.0 mph 6.0 mph 81% 0.00 in 0 W/m2
22:24 23.4 °F 18.1 °F 29.77 in SW 3.0 mph 5.0 mph 80% 0.00 in 0 W/m2
22:30 23.4 °F 18.1 °F 29.77 in South 2.0 mph 2.0 mph 80% 0.00 in 0 W/m2
22:36 23.4 °F 17.8 °F 29.77 in WSW 2.0 mph 5.0 mph 79% 0.00 in 0 W/m2
22:42 23.6 °F 18.0 °F 29.77 in SSW 2.0 mph 6.0 mph 79% 0.00 in 0 W/m2
22:48 23.7 °F 17.8 °F 29.77 in SW 3.0 mph 6.0 mph 78% 0.00 in 0 W/m2
22:54 23.7 °F 17.8 °F 29.77 in SW 2.0 mph 3.0 mph 78% 0.00 in 0 W/m2
23:00 23.9 °F 17.7 °F 29.77 in SW 2.0 mph 3.0 mph 77% 0.00 in 0 W/m2
23:06 24.0 °F 17.8 °F 29.77 in WNW 2.0 mph 3.0 mph 77% 0.00 in 0 W/m2
23:12 24.2 °F 18.0 °F 29.77 in SW 3.0 mph 4.0 mph 77% 0.00 in 0 W/m2
23:18 24.4 °F 17.9 °F 29.77 in WSW 4.0 mph 6.0 mph 76% 0.00 in 0 W/m2
23:24 24.7 °F 17.9 °F 29.78 in WSW 4.0 mph 5.0 mph 75% 0.00 in 0 W/m2
23:26 24.9 °F 18.1 °F 29.78 in WSW 4.0 mph 5.0 mph 75% 0.00 in 0 W/m2
23:32 25.0 °F 18.2 °F 29.78 in WSW 3.0 mph 3.0 mph 75% 0.00 in 0 W/m2
23:38 25.3 °F 18.5 °F 29.78 in WSW 3.0 mph 5.0 mph 75% 0.00 in 0 W/m2
23:44 25.5 °F 18.7 °F 29.78 in WSW 3.0 mph 5.0 mph 75% 0.00 in 0 W/m2
23:50 25.5 °F 18.4 °F 29.77 in South 5.0 mph 6.0 mph 74% 0.00 in 0 W/m2
23:56 25.4 °F 18.3 °F 29.77 in West 5.0 mph 6.0 mph 74% 0.00 in 0 W/m2
Country Meadow, Clay, NY, USA
Compliments of Weather Underground - 2 mb